Time;durP1;ratioP1;P1;durP2;ratioP2;P2;SDS_P1;SDS_P2;PMS_P1;PMS_P2;Temp;Humidity;BMP_temperature;BMP_pressure;BME280_temperature;BME280_humidity;BME280_pressure;Samples;Min_cycle;Max_cycle;Signal;HPM_P1;HPM_P2
2022/05/14 00:01:47;;;;;;;10.48;4.15;;;14.20;60.50;;;;;;1837050;77;21128;-57
2022/05/14 00:04:16;;;;;;;9.98;3.87;;;14.20;60.30;;;;;;1836935;78;21115;-57
2022/05/14 00:06:45;;;;;;;7.97;3.60;;;14.20;60.30;;;;;;1837058;78;21093;-57
2022/05/14 00:09:15;;;;;;;10.43;3.20;;;14.20;60.30;;;;;;1837097;78;21093;-57
2022/05/14 00:14:32;;;;;;;9.28;3.90;;;14.10;60.40;;;;;;1837036;77;21054;-57
2022/05/14 00:17:01;;;;;;;7.25;3.83;;;14.10;60.70;;;;;;1837047;78;21042;-57
2022/05/14 00:19:30;;;;;;;7.90;3.60;;;14.00;61.00;;;;;;1837136;78;21026;-57
2022/05/14 00:22:00;;;;;;;6.15;3.60;;;14.00;61.30;;;;;;1836950;78;21132;-57
2022/05/14 00:24:29;;;;;;;12.47;3.62;;;14.10;61.40;;;;;;1837061;78;21050;-57
2022/05/14 00:26:58;;;;;;;10.15;3.10;;;14.00;61.20;;;;;;1836960;77;21026;-57
2022/05/14 00:29:29;;;;;;;5.22;3.10;;;14.00;61.50;;;;;;1837075;77;21313;-57
2022/05/14 00:31:58;;;;;;;6.58;3.55;;;14.00;62.10;;;;;;1836994;78;21046;-57
2022/05/14 00:34:27;;;;;;;6.05;3.08;;;14.00;62.10;;;;;;1836993;78;21042;-57
2022/05/14 00:37:00;;;;;;;8.33;3.17;;;14.00;61.60;;;;;;1837007;78;21120;-56
2022/05/14 00:39:28;;;;;;;5.85;3.77;;;14.00;61.50;;;;;;1837051;78;21135;-57
2022/05/14 00:41:57;;;;;;;6.03;3.27;;;13.90;61.40;;;;;;1837043;78;21038;-57
2022/05/14 00:44:27;;;;;;;5.95;3.10;;;13.80;61.80;;;;;;1840448;76;21089;-57
2022/05/14 00:47:05;;;;;;;3.67;2.70;;;13.80;62.00;;;;;;1843227;77;21042;-57
2022/05/14 00:49:35;;;;;;;6.28;3.10;;;13.80;62.10;;;;;;1843151;77;21116;-57
2022/05/14 00:52:05;;;;;;;5.97;2.98;;;13.80;62.20;;;;;;1843147;77;21058;-57
2022/05/14 00:54:37;;;;;;;4.85;3.00;;;13.70;61.90;;;;;;1843138;77;21112;-56
2022/05/14 00:57:09;;;;;;;6.92;3.08;;;13.70;61.70;;;;;;1841423;77;21046;-57
2022/05/14 00:59:39;;;;;;;7.35;3.50;;;13.60;62.00;;;;;;1843197;77;21038;-57
2022/05/14 01:02:08;;;;;;;9.38;3.45;;;13.60;62.20;;;;;;1843155;78;21469;-57
2022/05/14 01:04:40;;;;;;;13.15;5.50;;;13.60;62.20;;;;;;1843154;77;21128;-57
2022/05/14 01:07:12;;;;;;;5.30;3.37;;;13.60;61.40;;;;;;1843112;76;21042;-57
2022/05/14 01:09:45;;;;;;;4.83;3.35;;;13.50;61.60;;;;;;1841220;76;21078;-56
2022/05/14 01:12:16;;;;;;;6.65;3.52;;;13.40;61.40;;;;;;1843207;77;21171;-57
2022/05/14 01:14:46;;;;;;;6.20;3.98;;;13.40;61.80;;;;;;1843181;78;21163;-57
2022/05/14 01:17:15;;;;;;;6.75;3.85;;;13.30;61.90;;;;;;1843117;76;21155;-57
2022/05/14 01:19:45;;;;;;;6.53;3.92;;;13.30;61.80;;;;;;1843122;77;21118;-57
2022/05/14 01:22:26;;;;;;;5.30;3.30;;;13.30;62.00;;;;;;1843101;77;21088;-57
2022/05/14 01:27:53;;;;;;;7.17;3.62;;;13.30;62.50;;;;;;1843164;76;21057;-56
2022/05/14 01:30:24;;;;;;;5.28;3.58;;;13.30;62.70;;;;;;1843123;78;21044;-57
2022/05/14 01:33:06;;;;;;;7.72;3.92;;;13.30;63.00;;;;;;1843252;77;21136;-57
2022/05/14 01:35:42;;;;;;;8.20;4.50;;;13.30;63.00;;;;;;1843355;76;21164;-56
2022/05/14 01:38:12;;;;;;;11.00;4.85;;;13.30;62.90;;;;;;1843174;77;21050;-57
2022/05/14 01:40:42;;;;;;;14.45;4.65;;;13.20;62.70;;;;;;1843214;77;21163;-57
2022/05/14 01:43:12;;;;;;;15.28;4.67;;;13.20;62.70;;;;;;1843144;78;21049;-57
2022/05/14 01:45:41;;;;;;;15.53;5.58;;;13.20;63.20;;;;;;1843111;77;21073;-57
2022/05/14 01:48:11;;;;;;;14.87;4.35;;;13.10;63.30;;;;;;1843124;78;21022;-57
2022/05/14 01:50:41;;;;;;;8.35;4.97;;;13.10;63.40;;;;;;1843124;77;21042;-57
2022/05/14 01:53:10;;;;;;;7.45;3.85;;;13.10;63.10;;;;;;1843084;77;21022;-56
2022/05/14 01:55:40;;;;;;;6.60;3.50;;;13.00;63.40;;;;;;1843350;78;21053;-57
2022/05/14 02:00:59;;;;;;;11.55;4.00;;;13.00;63.90;;;;;;1843234;76;21086;-56
2022/05/14 02:03:29;;;;;;;7.17;3.58;;;12.90;64.00;;;;;;1843199;77;21570;-56
2022/05/14 02:05:58;;;;;;;9.48;4.28;;;12.90;64.30;;;;;;1843321;78;21131;-56
2022/05/14 02:08:28;;;;;;;10.13;4.25;;;13.00;64.50;;;;;;1843279;77;21017;-57
2022/05/14 02:10:58;;;;;;;6.80;3.40;;;13.00;64.60;;;;;;1843354;77;21022;-57
2022/05/14 02:13:28;;;;;;;9.90;4.05;;;12.90;64.30;;;;;;1843305;77;21128;-57
2022/05/14 02:15:58;;;;;;;8.93;4.58;;;12.90;64.70;;;;;;1843161;77;21033;-57
2022/05/14 02:18:28;;;;;;;13.65;5.15;;;13.00;64.80;;;;;;1843262;76;21460;-56
2022/05/14 02:20:57;;;;;;;7.12;3.62;;;13.00;64.70;;;;;;1843313;76;21049;-57
2022/05/14 02:23:26;;;;;;;10.23;4.03;;;13.10;64.60;;;;;;1843123;78;21050;-56
2022/05/14 02:25:56;;;;;;;9.00;3.65;;;13.10;64.60;;;;;;1843189;77;21085;-56
2022/05/14 02:28:26;;;;;;;8.58;3.75;;;13.10;64.80;;;;;;1843167;77;21135;-57
2022/05/14 02:30:56;;;;;;;9.28;3.70;;;13.20;65.10;;;;;;1843268;78;21081;-57
2022/05/14 02:33:25;;;;;;;8.43;4.12;;;13.40;65.20;;;;;;1843210;77;21054;-57
2022/05/14 02:35:54;;;;;;;11.45;4.90;;;13.60;64.50;;;;;;1843188;78;21069;-57
2022/05/14 02:38:25;;;;;;;9.30;3.83;;;13.80;64.00;;;;;;1843327;78;21127;-57
2022/05/14 02:40:54;;;;;;;11.55;3.83;;;13.90;64.00;;;;;;1843143;76;21108;-56
2022/05/14 02:43:23;;;;;;;14.30;4.22;;;13.90;64.60;;;;;;1843248;78;21120;-57
2022/05/14 02:45:53;;;;;;;7.03;3.92;;;14.00;64.70;;;;;;1843221;77;21151;-56
2022/05/14 02:48:23;;;;;;;7.00;3.95;;;14.10;64.30;;;;;;1843312;77;21078;-56
2022/05/14 02:50:52;;;;;;;7.90;3.22;;;14.10;63.80;;;;;;1843341;78;21042;-57
2022/05/14 02:53:22;;;;;;;5.55;3.65;;;14.10;64.00;;;;;;1844804;78;21104;-57
2022/05/14 02:55:51;;;;;;;5.20;2.87;;;14.10;64.40;;;;;;1843260;76;21057;-57
2022/05/14 03:01:10;;;;;;;7.87;3.20;;;14.00;64.30;;;;;;1843204;76;21054;-57
2022/05/14 03:03:39;;;;;;;6.85;2.95;;;14.00;63.00;;;;;;1871063;75;21038;-56
2022/05/14 03:06:09;;;;;;;4.37;3.08;;;13.90;63.80;;;;;;1843246;77;21078;-57
2022/05/14 03:08:39;;;;;;;4.62;3.05;;;13.80;63.90;;;;;;1843250;78;21053;-56
2022/05/14 03:11:09;;;;;;;5.53;2.77;;;13.90;63.40;;;;;;1843233;77;21131;-57
2022/05/14 03:13:38;;;;;;;8.13;2.60;;;13.90;63.10;;;;;;1843297;78;21025;-56
2022/05/14 03:16:07;;;;;;;4.45;2.52;;;13.90;63.30;;;;;;1843353;77;21050;-57
2022/05/14 03:18:37;;;;;;;5.72;2.60;;;14.00;63.20;;;;;;1843271;77;21161;-57
2022/05/14 03:21:06;;;;;;;5.83;3.25;;;14.20;62.90;;;;;;1843259;76;21101;-56
2022/05/14 03:23:36;;;;;;;10.60;3.62;;;14.30;62.50;;;;;;1843159;76;21066;-57
2022/05/14 03:26:05;;;;;;;6.87;2.87;;;14.50;62.20;;;;;;1843144;77;21120;-56
2022/05/14 03:28:35;;;;;;;10.13;3.72;;;14.60;61.60;;;;;;1843215;76;21104;-56
2022/05/14 03:31:04;;;;;;;5.60;2.95;;;14.80;61.10;;;;;;1843113;76;21116;-57
2022/05/14 03:33:34;;;;;;;9.83;3.50;;;14.80;60.60;;;;;;1843258;78;21049;-56
2022/05/14 03:36:04;;;;;;;10.38;4.25;;;15.00;60.50;;;;;;1843310;78;21057;-57
2022/05/14 03:38:33;;;;;;;5.20;2.52;;;15.10;60.10;;;;;;1843171;77;21058;-56
2022/05/14 03:41:03;;;;;;;3.55;2.17;;;15.20;59.60;;;;;;1843209;77;21456;-57
2022/05/14 03:43:33;;;;;;;9.03;2.47;;;15.30;59.00;;;;;;1843207;76;21115;-57
2022/05/14 03:46:03;;;;;;;4.87;2.40;;;15.40;58.60;;;;;;1843063;77;21074;-57
2022/05/14 03:48:33;;;;;;;11.70;3.65;;;15.40;57.40;;;;;;1843180;78;21160;-56
2022/05/14 03:51:02;;;;;;;4.45;2.50;;;15.50;57.40;;;;;;1843253;76;21042;-57
2022/05/14 03:53:32;;;;;;;3.40;2.20;;;15.50;57.40;;;;;;1843238;77;21054;-57
2022/05/14 03:56:01;;;;;;;8.15;2.85;;;15.50;57.00;;;;;;1843127;77;21046;-57
2022/05/14 03:58:31;;;;;;;12.78;3.35;;;15.60;57.20;;;;;;1843177;78;21025;-56
2022/05/14 04:01:00;;;;;;;7.80;3.12;;;15.70;57.30;;;;;;1843236;76;21042;-56
2022/05/14 04:03:31;;;;;;;4.25;2.15;;;15.80;57.00;;;;;;1843088;77;21049;-57
2022/05/14 04:06:00;;;;;;;10.82;2.58;;;15.90;56.50;;;;;;1843174;78;21120;-57
2022/05/14 04:08:30;;;;;;;9.10;2.42;;;16.00;56.40;;;;;;1843221;76;21018;-57
2022/05/14 04:10:59;;;;;;;3.15;2.10;;;16.10;56.10;;;;;;1843288;76;21050;-56
2022/05/14 04:13:29;;;;;;;4.70;2.15;;;16.20;55.70;;;;;;1843135;77;21112;-57
2022/05/14 04:15:59;;;;;;;3.42;1.95;;;16.30;55.10;;;;;;1843166;76;21038;-56
2022/05/14 04:18:28;;;;;;;4.03;2.08;;;16.30;55.00;;;;;;1843201;77;21045;-57
2022/05/14 04:21:00;;;;;;;3.55;2.00;;;16.40;54.80;;;;;;1843124;76;21042;-56
2022/05/14 04:23:31;;;;;;;4.83;2.17;;;16.40;53.90;;;;;;1843112;77;21030;-56
2022/05/14 04:26:01;;;;;;;6.55;2.00;;;16.60;53.40;;;;;;1843290;78;21038;-57
2022/05/14 04:28:31;;;;;;;4.08;2.25;;;16.60;52.20;;;;;;1843279;78;21046;-56
2022/05/14 04:31:01;;;;;;;5.33;2.27;;;16.70;52.00;;;;;;1843149;78;21042;-57
2022/05/14 04:33:32;;;;;;;5.25;2.60;;;16.80;52.00;;;;;;1843317;76;21045;-57
2022/05/14 04:36:02;;;;;;;6.90;2.80;;;16.90;51.30;;;;;;1843240;77;21038;-57
2022/05/14 04:38:31;;;;;;;3.58;2.52;;;17.00;51.20;;;;;;1843302;78;21038;-57
2022/05/14 04:41:01;;;;;;;4.60;2.50;;;17.10;50.20;;;;;;1843244;78;21103;-57
2022/05/14 04:43:31;;;;;;;7.03;2.42;;;17.20;49.80;;;;;;1843436;78;21065;-57
2022/05/14 04:46:04;;;;;;;5.95;3.02;;;17.30;49.20;;;;;;1843200;77;21714;-57
2022/05/14 04:48:34;;;;;;;4.62;2.30;;;17.30;49.10;;;;;;1843256;77;21469;-56
2022/05/14 04:51:04;;;;;;;7.28;2.52;;;17.30;49.00;;;;;;1871202;76;21034;-57
2022/05/14 04:53:33;;;;;;;5.67;2.15;;;17.40;48.90;;;;;;1843160;76;21116;-57
2022/05/14 04:56:03;;;;;;;6.20;2.50;;;17.50;48.00;;;;;;1843221;77;21034;-56
2022/05/14 04:58:33;;;;;;;3.85;2.17;;;17.50;48.00;;;;;;1843161;77;21045;-57
2022/05/14 05:01:02;;;;;;;4.67;2.40;;;17.60;47.80;;;;;;1843183;76;21054;-56
2022/05/14 05:03:32;;;;;;;5.30;2.45;;;17.60;47.90;;;;;;1843181;76;21018;-56
2022/05/14 05:06:02;;;;;;;8.20;2.70;;;17.70;47.40;;;;;;1843173;78;21046;-56
2022/05/14 05:08:33;;;;;;;5.45;2.90;;;17.70;47.70;;;;;;1843290;76;21124;-56
2022/05/14 05:11:03;;;;;;;7.37;3.12;;;17.80;46.80;;;;;;1843125;76;21037;-56
2022/05/14 05:13:35;;;;;;;6.10;2.95;;;17.90;47.60;;;;;;1843297;78;21035;-56
2022/05/14 05:16:04;;;;;;;14.65;9.15;;;18.00;47.30;;;;;;1843205;76;21492;-56
2022/05/14 05:18:34;;;;;;;7.83;4.03;;;18.10;47.20;;;;;;1843244;78;21038;-56
2022/05/14 05:21:04;;;;;;;10.63;5.42;;;18.20;46.90;;;;;;1843087;77;21042;-56
2022/05/14 05:23:34;;;;;;;13.32;5.85;;;18.20;46.60;;;;;;1843117;78;21117;-56
2022/05/14 05:26:04;;;;;;;8.53;3.70;;;18.30;46.90;;;;;;1843086;76;21100;-56
2022/05/14 05:28:33;;;;;;;9.45;3.05;;;18.40;46.70;;;;;;1843375;78;21128;-56
2022/05/14 05:31:03;;;;;;;9.20;2.87;;;18.50;46.10;;;;;;1843120;77;21116;-56
2022/05/14 05:33:33;;;;;;;6.55;3.37;;;18.50;45.00;;;;;;1843258;78;21042;-56
2022/05/14 05:36:02;;;;;;;4.65;2.05;;;18.60;45.30;;;;;;1843322;76;21066;-56
2022/05/14 05:38:31;;;;;;;7.45;2.52;;;18.70;44.90;;;;;;1843357;78;21539;-56
2022/05/14 05:41:00;;;;;;;7.78;2.40;;;18.80;44.20;;;;;;1843245;77;21022;-56
2022/05/14 05:43:30;;;;;;;3.10;2.30;;;18.80;43.70;;;;;;1843220;77;21508;-56
2022/05/14 05:45:59;;;;;;;4.10;2.00;;;18.90;44.10;;;;;;1843235;77;21128;-56
2022/05/14 05:48:29;;;;;;;5.20;2.33;;;19.00;43.70;;;;;;1843192;76;21070;-56
2022/05/14 05:50:58;;;;;;;7.45;2.30;;;19.00;43.30;;;;;;1843264;77;21073;-56
2022/05/14 05:59:03;;;;;;;6.72;2.33;;;19.30;43.20;;;;;;1843391;77;21073;-56
2022/05/14 06:01:32;;;;;;;5.70;2.40;;;19.30;43.20;;;;;;1843363;76;21121;-56
2022/05/14 06:04:02;;;;;;;10.70;2.83;;;19.40;43.40;;;;;;1843345;77;21120;-56
2022/05/14 06:06:31;;;;;;;4.55;2.45;;;19.40;43.00;;;;;;1843263;76;21132;-56
2022/05/14 06:09:01;;;;;;;6.30;2.47;;;19.40;42.60;;;;;;1843389;77;21100;-56
2022/05/14 06:11:31;;;;;;;8.13;2.37;;;19.50;42.90;;;;;;1843211;77;21113;-56
2022/05/14 06:14:00;;;;;;;6.28;2.40;;;19.50;42.90;;;;;;1843271;76;21046;-56
2022/05/14 06:16:30;;;;;;;5.70;2.62;;;19.60;42.60;;;;;;1843270;77;21107;-56
2022/05/14 06:18:59;;;;;;;3.83;2.62;;;19.70;42.80;;;;;;1843272;76;21085;-56
2022/05/14 06:21:29;;;;;;;7.00;3.00;;;19.70;43.10;;;;;;1843329;77;21053;-56
2022/05/14 06:23:58;;;;;;;5.85;2.60;;;19.80;43.10;;;;;;1843196;76;21084;-56
2022/05/14 06:26:28;;;;;;;4.53;2.52;;;19.90;43.00;;;;;;1843239;76;21101;-56
2022/05/14 06:28:59;;;;;;;5.28;3.27;;;20.00;42.80;;;;;;1843271;77;21111;-56
2022/05/14 06:31:28;;;;;;;7.47;2.25;;;20.10;41.60;;;;;;1843354;78;21132;-56
2022/05/14 06:33:59;;;;;;;6.47;2.72;;;20.10;41.10;;;;;;1843364;76;21100;-56
2022/05/14 06:36:28;;;;;;;7.65;2.75;;;20.20;41.30;;;;;;1843293;78;21182;-56
2022/05/14 06:38:57;;;;;;;13.80;5.15;;;20.20;40.60;;;;;;1843267;77;21136;-56
2022/05/14 06:41:27;;;;;;;4.05;2.83;;;20.30;40.30;;;;;;1843325;77;21042;-57
2022/05/14 06:43:56;;;;;;;5.35;2.80;;;20.30;40.60;;;;;;1843305;78;21050;-56
2022/05/14 06:46:26;;;;;;;4.12;2.60;;;20.40;40.80;;;;;;1843162;78;21049;-56
2022/05/14 06:48:55;;;;;;;12.65;3.35;;;20.50;40.60;;;;;;1838290;76;21081;-56
2022/05/14 06:51:27;;;;;;;5.90;2.75;;;20.50;40.70;;;;;;1837146;77;21073;-56
2022/05/14 06:53:59;;;;;;;7.17;2.05;;;20.70;40.20;;;;;;1837191;77;21049;-56
2022/05/14 06:56:30;;;;;;;7.65;2.67;;;20.80;38.90;;;;;;1836813;78;21124;-57
2022/05/14 06:59:01;;;;;;;4.67;2.60;;;20.80;38.80;;;;;;1837074;78;21007;-57
2022/05/14 07:01:30;;;;;;;4.78;2.35;;;20.90;38.50;;;;;;1836994;77;21014;-56
2022/05/14 07:06:49;;;;;;;4.35;2.25;;;21.00;38.50;;;;;;1837019;78;21151;-56
2022/05/14 07:09:23;;;;;;;6.40;2.85;;;21.10;38.40;;;;;;1837178;78;21070;-56
2022/05/14 07:11:55;;;;;;;15.50;3.02;;;21.10;38.80;;;;;;1837102;77;21429;-56
2022/05/14 07:14:25;;;;;;;3.50;2.10;;;21.20;38.20;;;;;;1837211;78;21476;-56
2022/05/14 07:16:54;;;;;;;5.25;2.80;;;21.30;38.10;;;;;;1837206;78;21034;-56
2022/05/14 07:19:24;;;;;;;6.92;2.30;;;21.30;38.40;;;;;;1837251;78;21077;-56
2022/05/14 07:21:55;;;;;;;4.05;2.20;;;21.40;38.20;;;;;;1837069;77;21127;-56
2022/05/14 07:24:27;;;;;;;3.27;2.08;;;21.50;37.80;;;;;;1837018;77;21116;-56
2022/05/14 07:26:58;;;;;;;4.30;2.40;;;21.60;37.80;;;;;;1837074;78;21533;-56
2022/05/14 07:29:28;;;;;;;5.78;2.40;;;21.60;37.90;;;;;;1837076;78;21049;-56
2022/05/14 07:31:57;;;;;;;28.27;4.80;;;21.70;37.90;;;;;;1837128;78;21061;-56
2022/05/14 07:34:27;;;;;;;6.92;2.72;;;21.70;38.10;;;;;;1836975;78;21100;-56
2022/05/14 07:37:06;;;;;;;7.50;2.90;;;21.80;37.80;;;;;;1837002;78;21046;-55
2022/05/14 07:39:55;;;;;;;11.00;2.65;;;21.80;38.00;;;;;;1837000;77;21063;-56
2022/05/14 07:42:27;;;;;;;3.27;2.08;;;21.90;38.10;;;;;;1837105;78;21128;-56
2022/05/14 07:44:57;;;;;;;8.25;2.85;;;22.00;38.30;;;;;;1837003;77;21559;-56
2022/05/14 07:47:29;;;;;;;3.87;2.30;;;22.00;38.10;;;;;;1837234;77;21062;-56
2022/05/14 07:49:59;;;;;;;6.15;3.47;;;22.10;38.30;;;;;;1837072;78;21077;-56
2022/05/14 07:52:29;;;;;;;5.75;2.40;;;22.20;38.40;;;;;;1837058;78;21183;-56
2022/05/14 07:54:58;;;;;;;6.55;2.77;;;22.20;38.20;;;;;;1837096;78;21089;-56
2022/05/14 07:57:28;;;;;;;6.33;2.60;;;22.30;38.30;;;;;;1837073;78;21129;-56
2022/05/14 07:59:57;;;;;;;5.65;2.40;;;22.40;38.60;;;;;;1837154;78;21148;-56
2022/05/14 08:02:34;;;;;;;3.55;2.52;;;22.50;38.80;;;;;;1837141;78;21132;-56
2022/05/14 08:05:09;;;;;;;6.92;3.08;;;22.60;38.70;;;;;;1837073;78;21038;-56
2022/05/14 08:07:38;;;;;;;6.92;2.42;;;22.80;38.30;;;;;;1837225;77;21010;-56
2022/05/14 08:10:08;;;;;;;2.83;2.25;;;22.80;38.40;;;;;;1837020;77;21034;-56
2022/05/14 08:12:41;;;;;;;10.85;1.95;;;22.90;38.00;;;;;;1837099;78;21047;-56
2022/05/14 08:15:12;;;;;;;6.45;2.30;;;22.90;37.10;;;;;;1837085;78;21018;-55
2022/05/14 08:17:41;;;;;;;4.28;2.10;;;23.00;37.30;;;;;;1837056;78;21105;-56
2022/05/14 08:20:12;;;;;;;3.70;2.67;;;23.00;37.40;;;;;;1837099;78;21133;-56
2022/05/14 08:25:29;;;;;;;4.53;1.60;;;23.20;36.50;;;;;;1837122;78;21192;-55
2022/05/14 08:27:59;;;;;;;4.33;1.52;;;23.30;36.30;;;;;;1837041;78;21089;-56
2022/05/14 08:30:32;;;;;;;4.03;1.75;;;23.40;35.80;;;;;;1837014;78;21077;-56
2022/05/14 08:33:03;;;;;;;11.83;2.22;;;23.50;36.10;;;;;;1836959;78;21074;-56
2022/05/14 08:35:32;;;;;;;3.60;1.80;;;23.60;35.50;;;;;;1837018;78;21042;-56
2022/05/14 08:38:01;;;;;;;2.20;1.12;;;23.60;34.60;;;;;;1837035;77;21042;-56
2022/05/14 08:40:33;;;;;;;10.82;2.20;;;23.80;34.10;;;;;;1836968;77;21160;-56
2022/05/14 08:43:06;;;;;;;1.90;1.50;;;23.80;34.20;;;;;;1835142;78;21570;-55
2022/05/14 08:45:37;;;;;;;3.77;1.60;;;23.90;33.90;;;;;;1836822;77;21497;-56
2022/05/14 08:48:12;;;;;;;2.95;1.37;;;23.90;33.10;;;;;;1837013;77;21022;-54
2022/05/14 08:50:43;;;;;;;4.22;2.02;;;23.90;32.00;;;;;;1843256;77;21124;-56
2022/05/14 08:53:14;;;;;;;8.85;2.83;;;23.90;32.80;;;;;;1843174;77;21120;-56
2022/05/14 08:55:46;;;;;;;8.78;2.75;;;23.90;34.20;;;;;;1843173;78;21042;-56
2022/05/14 08:58:46;;;;;;;6.47;2.45;;;24.00;34.80;;;;;;1843357;76;21619;-56
2022/05/14 09:01:18;;;;;;;6.15;2.70;;;24.00;34.60;;;;;;1843309;76;21124;-56
2022/05/14 09:03:48;;;;;;;3.72;1.60;;;24.00;34.30;;;;;;1843208;78;21041;-56
2022/05/14 09:06:17;;;;;;;2.20;1.50;;;24.00;33.60;;;;;;1843076;76;21021;-56
2022/05/14 09:08:47;;;;;;;5.12;1.72;;;24.00;33.60;;;;;;1843258;78;21041;-56
2022/05/14 09:11:21;;;;;;;2.22;1.50;;;24.00;33.90;;;;;;1843152;76;21142;-56
2022/05/14 09:13:54;;;;;;;;;;;24.00;33.70;;;;;;1845912;77;21578;-56
2022/05/14 09:16:29;;;;;;;6.72;2.02;;;24.00;32.20;;;;;;1842552;76;20113;-56
2022/05/14 09:18:59;;;;;;;2.52;1.45;;;24.00;33.70;;;;;;1843256;78;21480;-56
2022/05/14 09:21:36;;;;;;;4.17;1.72;;;24.00;34.30;;;;;;1843300;77;21111;-56
2022/05/14 09:24:19;;;;;;;4.42;2.25;;;24.10;34.40;;;;;;1843145;77;21058;-56
2022/05/14 09:26:48;;;;;;;2.65;1.40;;;24.20;34.20;;;;;;1843390;76;21171;-56
2022/05/14 09:29:32;;;;;;;3.55;1.72;;;24.20;31.90;;;;;;1843206;76;21066;-56
2022/05/14 09:32:04;;;;;;;4.10;2.70;;;24.30;31.00;;;;;;1843371;78;21561;-56
2022/05/14 09:34:36;;;;;;;7.30;2.27;;;24.50;31.10;;;;;;1843170;76;21037;-56
2022/05/14 09:37:10;;;;;;;4.22;1.95;;;24.50;30.00;;;;;;1843207;77;21042;-56
2022/05/14 09:39:40;;;;;;;3.22;1.67;;;24.60;29.70;;;;;;1843271;77;21577;-56
2022/05/14 09:42:23;;;;;;;1.77;1.30;;;24.70;29.50;;;;;;1843254;77;21109;-57
2022/05/14 09:44:55;;;;;;;1.85;1.30;;;24.70;29.20;;;;;;1841559;78;21057;-56
2022/05/14 09:47:30;;;;;;;2.95;1.65;;;24.80;28.90;;;;;;1843233;77;21070;-56
2022/05/14 09:50:05;;;;;;;4.87;1.95;;;24.80;28.80;;;;;;1842925;77;21460;-56
2022/05/14 09:52:37;;;;;;;2.10;1.37;;;24.80;28.40;;;;;;1843266;77;21140;-56
2022/05/14 09:55:11;;;;;;;3.62;1.57;;;24.90;28.30;;;;;;1843149;76;21042;-56
2022/05/14 09:57:48;;;;;;;5.83;2.20;;;24.80;28.40;;;;;;1843291;76;21066;-56
2022/05/14 10:00:22;;;;;;;2.42;1.37;;;24.90;28.00;;;;;;1843206;77;21062;-56
2022/05/14 10:03:06;;;;;;;5.28;1.87;;;24.80;27.70;;;;;;1843070;76;21496;-56
2022/05/14 10:05:44;;;;;;;2.03;1.37;;;24.90;27.80;;;;;;1843366;77;21038;-56
2022/05/14 10:08:39;;;;;;;6.37;3.42;;;24.90;27.30;;;;;;1843325;76;21058;-56
2022/05/14 10:11:20;;;;;;;3.17;1.20;;;24.90;27.20;;;;;;1843200;76;21018;-56
2022/05/14 10:13:54;;;;;;;6.83;2.05;;;24.90;26.80;;;;;;1843000;78;21081;-56
2022/05/14 10:16:44;;;;;;;3.47;1.80;;;25.00;26.20;;;;;;1843221;78;21042;-56
2022/05/14 10:19:25;;;;;;;1.32;1.05;;;25.00;26.30;;;;;;1785415;78;21117;-56
2022/05/14 10:22:02;;;;;;;1.10;1.00;;;25.00;25.10;;;;;;1843267;76;21035;-56
2022/05/14 10:28:07;;;;;;;1.50;1.10;;;25.10;25.40;;;;;;1843592;78;21128;-56
2022/05/14 10:30:51;;;;;;;2.37;1.40;;;25.10;25.30;;;;;;1842631;76;21575;-56
2022/05/14 10:33:23;;;;;;;2.33;1.20;;;25.20;25.50;;;;;;1828523;78;21497;-56
2022/05/14 10:36:22;;;;;;;1.90;1.15;;;25.20;25.10;;;;;;1842636;78;21046;-56
2022/05/14 10:38:59;;;;;;;3.27;1.30;;;25.20;25.10;;;;;;1842764;77;21026;-56
2022/05/14 10:41:40;;;;;;;3.33;1.30;;;25.30;25.20;;;;;;1843343;77;21034;-56
2022/05/14 10:44:15;;;;;;;3.00;1.17;;;25.30;25.50;;;;;;1843306;77;21167;-56
2022/05/14 10:46:47;;;;;;;3.12;1.60;;;25.30;25.00;;;;;;1842932;76;21121;-56
2022/05/14 10:49:40;;;;;;;2.15;1.30;;;25.40;24.80;;;;;;1843228;77;21018;-55
2022/05/14 10:52:15;;;;;;;3.77;1.30;;;25.40;24.80;;;;;;1837221;78;21121;-56
2022/05/14 10:54:48;;;;;;;3.52;1.57;;;25.30;24.60;;;;;;1837161;78;21472;-55
2022/05/14 10:57:20;;;;;;;3.22;1.47;;;25.30;24.60;;;;;;1837234;77;21125;-55
2022/05/14 11:00:06;;;;;;;4.80;1.87;;;25.30;24.60;;;;;;1834766;77;21065;-55
2022/05/14 11:02:36;;;;;;;1.82;1.25;;;25.30;24.30;;;;;;1835846;77;21147;-55
2022/05/14 11:05:06;;;;;;;146.40;18.25;;;25.30;24.70;;;;;;1836842;77;21066;-56
2022/05/14 11:07:42;;;;;;;2.35;1.57;;;25.30;24.70;;;;;;1837204;78;21060;-56
2022/05/14 11:10:17;;;;;;;4.58;1.50;;;25.30;24.60;;;;;;1837134;78;21123;-56
2022/05/14 11:12:46;;;;;;;;;;;25.30;24.40;;;;;;1839095;78;21496;-56
2022/05/14 11:15:24;;;;;;;22.55;13.75;;;25.30;23.90;;;;;;1837211;78;20102;-56
2022/05/14 11:18:07;;;;;;;1.85;1.30;;;25.40;24.90;;;;;;1833977;78;21430;-56
2022/05/14 11:20:37;;;;;;;2.92;1.42;;;25.50;24.80;;;;;;1837184;78;21061;-56
2022/05/14 11:23:09;;;;;;;8.63;1.80;;;25.50;24.70;;;;;;1837054;77;21062;-56
2022/05/14 11:25:39;;;;;;;1.55;1.02;;;25.50;24.20;;;;;;1836729;78;21473;-56
2022/05/14 11:28:21;;;;;;;4.08;1.40;;;25.60;23.90;;;;;;1837011;78;21018;-56
2022/05/14 11:30:55;;;;;;;12.93;3.17;;;25.60;24.00;;;;;;1837080;78;21085;-56
2022/05/14 11:33:31;;;;;;;3.52;1.40;;;25.50;23.60;;;;;;1837199;78;21065;-56
2022/05/14 11:36:03;;;;;;;1.92;1.37;;;25.50;23.80;;;;;;1837145;78;21532;-56
2022/05/14 11:38:37;;;;;;;2.30;1.10;;;25.50;23.90;;;;;;1836949;77;21030;-56
2022/05/14 11:41:14;;;;;;;5.03;1.25;;;25.50;24.00;;;;;;1837238;77;21042;-56
2022/05/14 11:43:46;;;;;;;3.83;1.45;;;25.50;23.90;;;;;;1837121;78;21093;-56
2022/05/14 11:46:30;;;;;;;1.85;1.30;;;25.50;23.60;;;;;;1837011;78;21034;-56
2022/05/14 11:49:20;;;;;;;3.75;1.15;;;25.50;23.60;;;;;;1837306;77;21509;-56
2022/05/14 11:52:24;;;;;;;3.25;1.17;;;25.40;23.50;;;;;;1842237;77;21042;-56
2022/05/14 11:55:05;;;;;;;2.95;1.25;;;25.50;24.00;;;;;;1842216;76;21018;-56
2022/05/14 11:57:36;;;;;;;3.05;1.60;;;25.50;23.70;;;;;;1843282;76;21029;-56
2022/05/14 12:00:11;;;;;;;1.92;1.05;;;25.60;23.50;;;;;;1843133;78;21030;-56
2022/05/14 12:03:00;;;;;;;2.08;1.05;;;25.60;23.60;;;;;;1843239;77;21029;-56
2022/05/14 12:05:38;;;;;;;1.87;0.90;;;25.60;23.20;;;;;;1843001;76;21109;-56
2022/05/14 12:08:31;;;;;;;5.97;1.57;;;25.50;23.30;;;;;;1843206;78;21591;-56
2022/05/14 12:11:20;;;;;;;5.37;1.10;;;25.40;23.50;;;;;;1843285;77;21101;-56
2022/05/14 12:14:01;;;;;;;3.27;0.98;;;25.30;23.30;;;;;;1843111;77;21033;-56
2022/05/14 12:16:35;;;;;;;13.10;2.65;;;25.20;23.60;;;;;;1842991;76;21579;-56
2022/05/14 12:19:07;;;;;;;3.05;1.10;;;25.10;23.90;;;;;;1843178;78;21046;-56
2022/05/14 12:21:37;;;;;;;1.55;0.93;;;25.00;24.30;;;;;;1840386;77;21499;-56
2022/05/14 12:24:07;;;;;;;2.47;1.05;;;25.00;24.50;;;;;;1843097;78;21082;-56
2022/05/14 12:26:37;;;;;;;1.95;1.10;;;25.10;24.70;;;;;;1841682;77;21641;-56
2022/05/14 12:29:24;;;;;;;4.37;1.00;;;25.10;25.10;;;;;;1843140;78;21077;-56
2022/05/14 12:34:50;;;;;;;2.58;1.12;;;25.00;24.30;;;;;;1843152;76;21159;-56
2022/05/14 12:37:27;;;;;;;11.12;1.32;;;24.90;24.40;;;;;;1843108;77;21034;-56
2022/05/14 12:39:58;;;;;;;1.60;0.95;;;24.80;23.90;;;;;;1843214;76;21058;-58
2022/05/14 12:42:36;;;;;;;3.10;1.00;;;24.80;22.60;;;;;;1843097;77;21038;-56
2022/05/14 12:45:06;;;;;;;1.50;1.10;;;24.60;22.70;;;;;;1842059;76;21508;-56
2022/05/14 12:47:40;;;;;;;2.90;1.52;;;24.60;22.60;;;;;;1843067;78;21053;-55
2022/05/14 12:50:26;;;;;;;3.60;1.47;;;24.50;23.10;;;;;;1843221;78;21038;-56
2022/05/14 12:53:06;;;;;;;3.50;1.52;;;24.50;23.60;;;;;;1843188;76;21089;-55
2022/05/14 12:55:41;;;;;;;2.17;1.40;;;24.50;23.60;;;;;;1843075;77;21042;-56
2022/05/14 12:58:11;;;;;;;9.98;1.95;;;24.50;23.80;;;;;;1843230;77;21159;-56
2022/05/14 13:00:41;;;;;;;5.35;1.55;;;24.50;23.80;;;;;;1843295;77;21042;-55
2022/05/14 13:03:25;;;;;;;3.92;1.40;;;24.60;23.60;;;;;;1843122;77;21089;-56
2022/05/14 13:05:57;;;;;;;2.10;1.05;;;24.70;23.40;;;;;;1822722;76;21034;-56
2022/05/14 13:08:28;;;;;;;1.80;1.20;;;24.80;23.40;;;;;;1843255;77;21054;-56
2022/05/14 13:11:06;;;;;;;2.87;1.47;;;24.80;23.20;;;;;;1843244;77;21108;-56
2022/05/14 13:13:38;;;;;;;2.08;1.20;;;24.80;23.00;;;;;;1842561;77;21070;-56
2022/05/14 13:16:13;;;;;;;1.62;1.17;;;24.80;23.10;;;;;;1843204;78;21061;-56
2022/05/14 13:18:49;;;;;;;4.33;1.30;;;24.90;23.30;;;;;;1831740;78;21569;-56
2022/05/14 13:21:23;;;;;;;2.70;1.72;;;24.90;23.30;;;;;;1843186;77;21112;-55
2022/05/14 13:23:53;;;;;;;;;;;24.90;23.40;;;;;;1844495;77;21042;-55
2022/05/14 13:26:27;;;;;;;2.95;1.10;;;24.90;23.10;;;;;;1843208;78;20111;-56
2022/05/14 13:28:57;;;;;;;;;;;24.90;24.10;;;;;;1845395;77;21128;-56
2022/05/14 13:31:27;;;;;;;1.50;1.17;;;24.90;23.90;;;;;;1841196;77;20103;-56
2022/05/14 13:39:23;;;;;;;4.95;1.62;;;24.60;24.80;;;;;;1843129;78;21152;-57
2022/05/14 13:41:52;;;;;;;2.92;1.87;;;24.60;25.30;;;;;;1843037;78;21074;-57
2022/05/14 13:44:24;;;;;;;4.25;1.55;;;24.60;25.40;;;;;;1842959;77;21159;-57
2022/05/14 13:46:59;;;;;;;5.20;1.70;;;24.60;25.50;;;;;;1843285;76;21104;-57